sensor_id;sensor_type;location;lat;lon;timestamp;P1;durP1;ratioP1;P2;durP2;ratioP2
41966;SDS011;27656;53.068;8.818;2023-04-25T00:00:48;18.90;;;5.00;;
41966;SDS011;27656;53.068;8.818;2023-04-25T00:03:14;21.83;;;5.43;;
41966;SDS011;27656;53.068;8.818;2023-04-25T00:05:42;27.90;;;4.83;;
41966;SDS011;27656;53.068;8.818;2023-04-25T00:08:09;19.60;;;5.00;;
41966;SDS011;27656;53.068;8.818;2023-04-25T00:10:35;22.40;;;4.80;;
41966;SDS011;27656;53.068;8.818;2023-04-25T00:44:51;16.40;;;3.90;;
41966;SDS011;27656;53.068;8.818;2023-04-25T00:47:18;24.00;;;4.43;;
41966;SDS011;27656;53.068;8.818;2023-04-25T00:49:45;20.67;;;5.07;;
41966;SDS011;27656;53.068;8.818;2023-04-25T00:52:12;20.87;;;4.33;;
41966;SDS011;27656;53.068;8.818;2023-04-25T00:54:38;26.80;;;5.07;;
41966;SDS011;27656;53.068;8.818;2023-04-25T00:57:05;25.30;;;3.97;;
41966;SDS011;27656;53.068;8.818;2023-04-25T00:59:32;30.20;;;4.87;;
41966;SDS011;27656;53.068;8.818;2023-04-25T01:01:59;22.77;;;4.40;;
41966;SDS011;27656;53.068;8.818;2023-04-25T01:04:26;21.57;;;4.30;;
41966;SDS011;27656;53.068;8.818;2023-04-25T01:06:53;26.93;;;4.60;;
41966;SDS011;27656;53.068;8.818;2023-04-25T01:09:20;20.40;;;4.57;;
41966;SDS011;27656;53.068;8.818;2023-04-25T01:11:47;22.13;;;4.37;;
41966;SDS011;27656;53.068;8.818;2023-04-25T01:14:13;29.10;;;5.23;;
41966;SDS011;27656;53.068;8.818;2023-04-25T01:16:39;25.87;;;4.43;;
41966;SDS011;27656;53.068;8.818;2023-04-25T01:19:08;21.20;;;5.07;;
41966;SDS011;27656;53.068;8.818;2023-04-25T01:21:37;19.27;;;4.33;;
41966;SDS011;27656;53.068;8.818;2023-04-25T01:24:04;17.67;;;4.17;;
41966;SDS011;27656;53.068;8.818;2023-04-25T01:26:31;25.73;;;5.00;;
41966;SDS011;27656;53.068;8.818;2023-04-25T01:28:57;25.37;;;4.33;;
41966;SDS011;27656;53.068;8.818;2023-04-25T01:31:24;27.90;;;5.27;;
41966;SDS011;27656;53.068;8.818;2023-04-25T01:33:51;25.80;;;5.00;;
41966;SDS011;27656;53.068;8.818;2023-04-25T01:36:18;23.13;;;4.50;;
41966;SDS011;27656;53.068;8.818;2023-04-25T01:38:45;17.43;;;4.47;;
41966;SDS011;27656;53.068;8.818;2023-04-25T01:41:13;26.83;;;4.43;;
41966;SDS011;27656;53.068;8.818;2023-04-25T01:43:40;24.63;;;4.23;;
41966;SDS011;27656;53.068;8.818;2023-04-25T01:46:06;20.93;;;4.70;;
41966;SDS011;27656;53.068;8.818;2023-04-25T01:48:33;23.47;;;4.23;;
41966;SDS011;27656;53.068;8.818;2023-04-25T01:50:59;26.10;;;4.87;;
41966;SDS011;27656;53.068;8.818;2023-04-25T01:53:26;21.20;;;4.43;;
41966;SDS011;27656;53.068;8.818;2023-04-25T01:55:52;21.77;;;4.50;;
41966;SDS011;27656;53.068;8.818;2023-04-25T01:58:19;21.43;;;4.30;;
41966;SDS011;27656;53.068;8.818;2023-04-25T02:00:46;22.87;;;4.10;;
41966;SDS011;27656;53.068;8.818;2023-04-25T02:03:12;32.83;;;4.73;;
41966;SDS011;27656;53.068;8.818;2023-04-25T02:05:39;24.97;;;4.23;;
41966;SDS011;27656;53.068;8.818;2023-04-25T02:08:06;22.23;;;4.27;;
41966;SDS011;27656;53.068;8.818;2023-04-25T02:10:34;24.83;;;4.37;;
41966;SDS011;27656;53.068;8.818;2023-04-25T02:13:01;20.77;;;4.20;;
41966;SDS011;27656;53.068;8.818;2023-04-25T02:15:27;21.63;;;5.13;;
41966;SDS011;27656;53.068;8.818;2023-04-25T02:17:53;19.30;;;4.00;;
41966;SDS011;27656;53.068;8.818;2023-04-25T02:20:20;27.63;;;4.30;;
41966;SDS011;27656;53.068;8.818;2023-04-25T02:22:47;19.27;;;4.60;;
41966;SDS011;27656;53.068;8.818;2023-04-25T02:25:14;23.17;;;4.60;;
41966;SDS011;27656;53.068;8.818;2023-04-25T02:27:42;21.20;;;4.17;;
41966;SDS011;27656;53.068;8.818;2023-04-25T02:30:09;25.50;;;4.90;;
41966;SDS011;27656;53.068;8.818;2023-04-25T02:32:35;21.77;;;3.83;;
41966;SDS011;27656;53.068;8.818;2023-04-25T02:35:02;23.37;;;4.17;;
41966;SDS011;27656;53.068;8.818;2023-04-25T02:44:49;21.20;;;5.70;;
41966;SDS011;27656;53.068;8.818;2023-04-25T02:47:15;23.00;;;4.30;;
41966;SDS011;27656;53.068;8.818;2023-04-25T02:49:42;23.23;;;4.23;;
41966;SDS011;27656;53.068;8.818;2023-04-25T02:52:08;28.90;;;5.13;;
41966;SDS011;27656;53.068;8.818;2023-04-25T02:54:35;17.90;;;4.73;;
41966;SDS011;27656;53.068;8.818;2023-04-25T02:57:01;25.47;;;4.47;;
41966;SDS011;27656;53.068;8.818;2023-04-25T02:59:28;26.60;;;4.27;;
41966;SDS011;27656;53.068;8.818;2023-04-25T03:01:55;21.20;;;4.23;;
41966;SDS011;27656;53.068;8.818;2023-04-25T03:04:21;21.60;;;4.03;;
41966;SDS011;27656;53.068;8.818;2023-04-25T03:06:50;23.07;;;4.27;;
41966;SDS011;27656;53.068;8.818;2023-04-25T03:09:16;17.63;;;3.80;;
41966;SDS011;27656;53.068;8.818;2023-04-25T03:11:44;24.37;;;3.83;;
41966;SDS011;27656;53.068;8.818;2023-04-25T03:14:11;23.63;;;4.17;;
41966;SDS011;27656;53.068;8.818;2023-04-25T03:16:38;25.90;;;4.40;;
41966;SDS011;27656;53.068;8.818;2023-04-25T03:19:05;22.77;;;3.97;;
41966;SDS011;27656;53.068;8.818;2023-04-25T03:21:32;25.80;;;3.80;;
41966;SDS011;27656;53.068;8.818;2023-04-25T03:24:02;21.17;;;3.87;;
41966;SDS011;27656;53.068;8.818;2023-04-25T03:26:30;24.50;;;4.10;;
41966;SDS011;27656;53.068;8.818;2023-04-25T03:28:57;18.90;;;4.30;;
41966;SDS011;27656;53.068;8.818;2023-04-25T03:31:23;22.13;;;3.77;;
41966;SDS011;27656;53.068;8.818;2023-04-25T03:33:50;19.20;;;3.33;;
41966;SDS011;27656;53.068;8.818;2023-04-25T03:36:16;22.47;;;4.13;;
41966;SDS011;27656;53.068;8.818;2023-04-25T03:38:43;20.27;;;4.40;;
41966;SDS011;27656;53.068;8.818;2023-04-25T03:41:09;17.47;;;3.87;;
41966;SDS011;27656;53.068;8.818;2023-04-25T03:43:36;22.70;;;4.60;;
41966;SDS011;27656;53.068;8.818;2023-04-25T03:46:02;23.00;;;4.50;;
41966;SDS011;27656;53.068;8.818;2023-04-25T03:48:28;22.43;;;4.47;;
41966;SDS011;27656;53.068;8.818;2023-04-25T03:50:55;25.27;;;4.77;;
41966;SDS011;27656;53.068;8.818;2023-04-25T03:53:21;16.13;;;4.17;;
41966;SDS011;27656;53.068;8.818;2023-04-25T03:55:48;19.53;;;3.67;;
41966;SDS011;27656;53.068;8.818;2023-04-25T03:58:14;26.90;;;4.03;;
41966;SDS011;27656;53.068;8.818;2023-04-25T04:00:41;19.07;;;4.00;;
41966;SDS011;27656;53.068;8.818;2023-04-25T04:03:07;23.03;;;4.20;;
41966;SDS011;27656;53.068;8.818;2023-04-25T04:05:34;22.90;;;4.00;;
41966;SDS011;27656;53.068;8.818;2023-04-25T04:08:00;23.93;;;4.23;;
41966;SDS011;27656;53.068;8.818;2023-04-25T04:10:27;17.93;;;3.83;;
41966;SDS011;27656;53.068;8.818;2023-04-25T04:12:53;27.13;;;4.47;;
41966;SDS011;27656;53.068;8.818;2023-04-25T04:15:20;28.00;;;4.30;;
41966;SDS011;27656;53.068;8.818;2023-04-25T04:17:47;21.20;;;3.50;;
41966;SDS011;27656;53.068;8.818;2023-04-25T04:20:14;21.30;;;3.53;;
41966;SDS011;27656;53.068;8.818;2023-04-25T04:22:41;22.73;;;4.00;;
41966;SDS011;27656;53.068;8.818;2023-04-25T04:25:07;18.53;;;3.50;;
41966;SDS011;27656;53.068;8.818;2023-04-25T04:27:34;13.97;;;3.70;;
41966;SDS011;27656;53.068;8.818;2023-04-25T04:30:00;20.30;;;4.20;;
41966;SDS011;27656;53.068;8.818;2023-04-25T04:32:27;18.13;;;3.40;;
41966;SDS011;27656;53.068;8.818;2023-04-25T04:34:56;15.73;;;4.57;;
41966;SDS011;27656;53.068;8.818;2023-04-25T04:37:23;20.07;;;3.50;;
41966;SDS011;27656;53.068;8.818;2023-04-25T04:39:50;15.60;;;3.63;;
41966;SDS011;27656;53.068;8.818;2023-04-25T04:42:17;18.03;;;3.57;;
41966;SDS011;27656;53.068;8.818;2023-04-25T04:44:44;19.40;;;3.93;;
41966;SDS011;27656;53.068;8.818;2023-04-25T04:47:10;18.53;;;3.70;;
41966;SDS011;27656;53.068;8.818;2023-04-25T04:49:38;22.00;;;3.70;;
41966;SDS011;27656;53.068;8.818;2023-04-25T04:52:05;17.33;;;3.77;;
41966;SDS011;27656;53.068;8.818;2023-04-25T04:54:32;11.70;;;3.50;;
41966;SDS011;27656;53.068;8.818;2023-04-25T04:56:58;13.27;;;3.07;;
41966;SDS011;27656;53.068;8.818;2023-04-25T04:59:24;18.27;;;3.47;;
41966;SDS011;27656;53.068;8.818;2023-04-25T05:01:52;19.47;;;3.70;;
41966;SDS011;27656;53.068;8.818;2023-04-25T05:04:18;20.77;;;4.10;;
41966;SDS011;27656;53.068;8.818;2023-04-25T05:06:45;17.60;;;3.53;;
41966;SDS011;27656;53.068;8.818;2023-04-25T05:09:14;19.20;;;4.53;;
41966;SDS011;27656;53.068;8.818;2023-04-25T05:11:41;16.93;;;3.80;;
41966;SDS011;27656;53.068;8.818;2023-04-25T05:14:07;22.60;;;3.73;;
41966;SDS011;27656;53.068;8.818;2023-04-25T05:16:34;16.30;;;2.93;;
41966;SDS011;27656;53.068;8.818;2023-04-25T05:19:01;16.80;;;3.60;;
41966;SDS011;27656;53.068;8.818;2023-04-25T05:21:27;13.00;;;3.53;;
41966;SDS011;27656;53.068;8.818;2023-04-25T05:23:54;16.53;;;3.20;;
41966;SDS011;27656;53.068;8.818;2023-04-25T05:26:20;18.93;;;3.33;;
41966;SDS011;27656;53.068;8.818;2023-04-25T05:28:47;8.07;;;2.70;;
41966;SDS011;27656;53.068;8.818;2023-04-25T05:31:13;12.17;;;2.97;;
41966;SDS011;27656;53.068;8.818;2023-04-25T05:33:40;17.17;;;3.10;;
41966;SDS011;27656;53.068;8.818;2023-04-25T05:36:06;14.60;;;3.67;;
41966;SDS011;27656;53.068;8.818;2023-04-25T05:38:33;11.73;;;2.93;;
41966;SDS011;27656;53.068;8.818;2023-04-25T05:41:00;15.80;;;3.10;;
41966;SDS011;27656;53.068;8.818;2023-04-25T05:43:26;11.07;;;2.93;;
41966;SDS011;27656;53.068;8.818;2023-04-25T05:45:53;18.17;;;3.27;;
41966;SDS011;27656;53.068;8.818;2023-04-25T05:48:20;17.90;;;3.73;;
41966;SDS011;27656;53.068;8.818;2023-04-25T05:50:46;14.50;;;3.30;;
41966;SDS011;27656;53.068;8.818;2023-04-25T05:53:12;12.20;;;2.67;;
41966;SDS011;27656;53.068;8.818;2023-04-25T05:55:39;18.00;;;3.93;;
41966;SDS011;27656;53.068;8.818;2023-04-25T05:58:06;17.77;;;2.83;;
41966;SDS011;27656;53.068;8.818;2023-04-25T06:00:33;14.30;;;3.13;;
41966;SDS011;27656;53.068;8.818;2023-04-25T06:02:59;16.27;;;3.37;;
41966;SDS011;27656;53.068;8.818;2023-04-25T06:05:27;11.87;;;2.50;;
41966;SDS011;27656;53.068;8.818;2023-04-25T06:07:54;12.27;;;2.70;;
41966;SDS011;27656;53.068;8.818;2023-04-25T06:10:21;15.87;;;2.87;;
41966;SDS011;27656;53.068;8.818;2023-04-25T06:12:47;10.27;;;2.13;;
41966;SDS011;27656;53.068;8.818;2023-04-25T06:15:14;8.03;;;2.33;;
41966;SDS011;27656;53.068;8.818;2023-04-25T06:17:53;14.03;;;2.77;;
41966;SDS011;27656;53.068;8.818;2023-04-25T06:20:20;11.67;;;2.80;;
41966;SDS011;27656;53.068;8.818;2023-04-25T06:22:51;11.90;;;2.43;;
41966;SDS011;27656;53.068;8.818;2023-04-25T06:25:18;15.90;;;3.20;;
41966;SDS011;27656;53.068;8.818;2023-04-25T06:27:44;15.53;;;2.50;;
41966;SDS011;27656;53.068;8.818;2023-04-25T06:30:11;10.93;;;2.80;;
41966;SDS011;27656;53.068;8.818;2023-04-25T06:32:41;12.43;;;2.83;;
41966;SDS011;27656;53.068;8.818;2023-04-25T06:35:07;11.23;;;2.20;;
41966;SDS011;27656;53.068;8.818;2023-04-25T06:37:34;12.67;;;2.27;;
41966;SDS011;27656;53.068;8.818;2023-04-25T06:40:01;10.00;;;2.40;;
41966;SDS011;27656;53.068;8.818;2023-04-25T06:42:28;11.90;;;2.90;;
41966;SDS011;27656;53.068;8.818;2023-04-25T09:04:21;7.50;;;1.57;;
41966;SDS011;27656;53.068;8.818;2023-04-25T09:06:48;8.23;;;1.40;;
41966;SDS011;27656;53.068;8.818;2023-04-25T09:09:14;9.57;;;1.53;;
41966;SDS011;27656;53.068;8.818;2023-04-25T09:11:41;8.17;;;1.40;;
41966;SDS011;27656;53.068;8.818;2023-04-25T09:14:15;4.73;;;1.23;;
41966;SDS011;27656;53.068;8.818;2023-04-25T09:19:29;5.50;;;1.50;;
41966;SDS011;27656;53.068;8.818;2023-04-25T09:22:05;6.97;;;1.30;;
41966;SDS011;27656;53.068;8.818;2023-04-25T09:24:37;8.20;;;1.53;;
41966;SDS011;27656;53.068;8.818;2023-04-25T09:27:05;7.87;;;1.77;;
41966;SDS011;27656;53.068;8.818;2023-04-25T09:29:33;7.37;;;1.77;;
41966;SDS011;27656;53.068;8.818;2023-04-25T09:32:17;8.30;;;1.93;;
41966;SDS011;27656;53.068;8.818;2023-04-25T09:34:46;9.33;;;1.93;;
41966;SDS011;27656;53.068;8.818;2023-04-25T09:37:19;7.20;;;1.27;;
41966;SDS011;27656;53.068;8.818;2023-04-25T09:39:47;10.10;;;1.47;;
41966;SDS011;27656;53.068;8.818;2023-04-25T09:42:15;7.67;;;1.63;;
41966;SDS011;27656;53.068;8.818;2023-04-25T09:44:43;6.47;;;1.30;;
41966;SDS011;27656;53.068;8.818;2023-04-25T09:47:11;6.80;;;1.50;;
41966;SDS011;27656;53.068;8.818;2023-04-25T09:49:39;10.47;;;1.70;;
41966;SDS011;27656;53.068;8.818;2023-04-25T09:52:08;12.03;;;1.90;;
41966;SDS011;27656;53.068;8.818;2023-04-25T09:54:35;14.27;;;2.00;;
41966;SDS011;27656;53.068;8.818;2023-04-25T09:57:05;6.20;;;1.63;;
41966;SDS011;27656;53.068;8.818;2023-04-25T09:59:50;12.90;;;1.93;;
41966;SDS011;27656;53.068;8.818;2023-04-25T10:02:19;7.03;;;1.80;;
41966;SDS011;27656;53.068;8.818;2023-04-25T10:04:50;8.40;;;1.97;;
41966;SDS011;27656;53.068;8.818;2023-04-25T10:07:19;5.17;;;1.20;;
41966;SDS011;27656;53.068;8.818;2023-04-25T10:09:48;6.53;;;2.10;;
41966;SDS011;27656;53.068;8.818;2023-04-25T10:12:16;9.30;;;1.53;;
41966;SDS011;27656;53.068;8.818;2023-04-25T10:14:43;5.70;;;1.13;;
41966;SDS011;27656;53.068;8.818;2023-04-25T10:17:10;9.40;;;1.00;;
41966;SDS011;27656;53.068;8.818;2023-04-25T10:19:37;2.77;;;1.00;;
41966;SDS011;27656;53.068;8.818;2023-04-25T10:22:07;5.73;;;1.20;;
41966;SDS011;27656;53.068;8.818;2023-04-25T10:24:38;9.40;;;1.17;;
41966;SDS011;27656;53.068;8.818;2023-04-25T10:27:05;3.63;;;1.00;;
41966;SDS011;27656;53.068;8.818;2023-04-25T10:29:32;6.50;;;1.07;;
41966;SDS011;27656;53.068;8.818;2023-04-25T10:31:58;7.00;;;1.30;;
41966;SDS011;27656;53.068;8.818;2023-04-25T10:34:38;4.37;;;1.40;;
41966;SDS011;27656;53.068;8.818;2023-04-25T10:37:08;2.80;;;1.00;;
41966;SDS011;27656;53.068;8.818;2023-04-25T10:39:36;4.17;;;1.37;;
41966;SDS011;27656;53.068;8.818;2023-04-25T10:42:05;6.53;;;1.40;;
41966;SDS011;27656;53.068;8.818;2023-04-25T10:44:32;7.50;;;1.53;;
41966;SDS011;27656;53.068;8.818;2023-04-25T10:46:59;4.40;;;1.00;;
41966;SDS011;27656;53.068;8.818;2023-04-25T10:49:31;7.27;;;1.40;;
41966;SDS011;27656;53.068;8.818;2023-04-25T10:52:15;6.27;;;1.30;;
41966;SDS011;27656;53.068;8.818;2023-04-25T10:57:26;4.77;;;1.63;;
41966;SDS011;27656;53.068;8.818;2023-04-25T10:59:53;6.53;;;1.37;;
41966;SDS011;27656;53.068;8.818;2023-04-25T11:02:20;6.23;;;1.73;;
41966;SDS011;27656;53.068;8.818;2023-04-25T11:04:47;11.80;;;1.37;;
41966;SDS011;27656;53.068;8.818;2023-04-25T11:07:19;7.20;;;1.40;;
41966;SDS011;27656;53.068;8.818;2023-04-25T11:09:52;10.43;;;1.40;;
41966;SDS011;27656;53.068;8.818;2023-04-25T11:12:19;6.03;;;1.60;;
41966;SDS011;27656;53.068;8.818;2023-04-25T11:14:45;6.60;;;1.53;;
41966;SDS011;27656;53.068;8.818;2023-04-25T11:17:12;6.20;;;1.80;;
41966;SDS011;27656;53.068;8.818;2023-04-25T11:19:38;5.47;;;1.53;;
41966;SDS011;27656;53.068;8.818;2023-04-25T11:22:05;12.37;;;1.53;;
41966;SDS011;27656;53.068;8.818;2023-04-25T11:24:33;5.77;;;1.47;;
41966;SDS011;27656;53.068;8.818;2023-04-25T11:27:01;6.00;;;1.33;;
41966;SDS011;27656;53.068;8.818;2023-04-25T11:29:29;7.73;;;1.60;;
41966;SDS011;27656;53.068;8.818;2023-04-25T11:31:56;8.40;;;1.53;;
41966;SDS011;27656;53.068;8.818;2023-04-25T11:34:28;12.30;;;1.77;;
41966;SDS011;27656;53.068;8.818;2023-04-25T11:36:57;10.23;;;2.53;;
41966;SDS011;27656;53.068;8.818;2023-04-25T11:39:24;17.07;;;3.30;;
41966;SDS011;27656;53.068;8.818;2023-04-25T11:46:44;6.70;;;1.40;;
41966;SDS011;27656;53.068;8.818;2023-04-25T11:49:11;7.57;;;1.37;;
41966;SDS011;27656;53.068;8.818;2023-04-25T11:51:39;6.93;;;1.80;;
41966;SDS011;27656;53.068;8.818;2023-04-25T11:54:09;13.17;;;2.30;;
41966;SDS011;27656;53.068;8.818;2023-04-25T11:56:36;10.40;;;2.20;;
41966;SDS011;27656;53.068;8.818;2023-04-25T11:59:04;11.70;;;2.23;;
41966;SDS011;27656;53.068;8.818;2023-04-25T12:01:33;13.20;;;3.33;;
41966;SDS011;27656;53.068;8.818;2023-04-25T12:04:12;12.33;;;2.57;;
41966;SDS011;27656;53.068;8.818;2023-04-25T12:06:50;13.43;;;2.43;;
41966;SDS011;27656;53.068;8.818;2023-04-25T12:09:18;7.07;;;2.20;;
41966;SDS011;27656;53.068;8.818;2023-04-25T12:11:53;3.77;;;1.30;;
41966;SDS011;27656;53.068;8.818;2023-04-25T12:14:25;3.53;;;1.00;;
41966;SDS011;27656;53.068;8.818;2023-04-25T12:16:56;4.23;;;1.00;;
41966;SDS011;27656;53.068;8.818;2023-04-25T12:19:31;7.63;;;1.60;;
41966;SDS011;27656;53.068;8.818;2023-04-25T12:21:59;6.47;;;1.57;;
41966;SDS011;27656;53.068;8.818;2023-04-25T12:24:27;6.50;;;1.30;;
41966;SDS011;27656;53.068;8.818;2023-04-25T12:27:01;6.43;;;1.80;;
41966;SDS011;27656;53.068;8.818;2023-04-25T12:29:29;9.37;;;2.47;;
41966;SDS011;27656;53.068;8.818;2023-04-25T12:32:13;12.20;;;2.67;;
41966;SDS011;27656;53.068;8.818;2023-04-25T12:34:39;13.20;;;2.73;;
41966;SDS011;27656;53.068;8.818;2023-04-25T12:37:06;9.53;;;2.87;;
41966;SDS011;27656;53.068;8.818;2023-04-25T12:39:32;12.40;;;2.50;;
41966;SDS011;27656;53.068;8.818;2023-04-25T12:41:59;8.77;;;1.70;;
41966;SDS011;27656;53.068;8.818;2023-04-25T12:44:25;6.90;;;1.47;;
41966;SDS011;27656;53.068;8.818;2023-04-25T12:46:52;12.37;;;1.60;;
41966;SDS011;27656;53.068;8.818;2023-04-25T12:49:19;12.27;;;1.70;;
41966;SDS011;27656;53.068;8.818;2023-04-25T12:51:45;9.17;;;1.60;;
41966;SDS011;27656;53.068;8.818;2023-04-25T12:54:12;3.00;;;1.20;;
41966;SDS011;27656;53.068;8.818;2023-04-25T12:56:40;5.80;;;1.50;;
41966;SDS011;27656;53.068;8.818;2023-04-25T12:59:07;6.10;;;1.57;;
41966;SDS011;27656;53.068;8.818;2023-04-25T13:01:33;5.47;;;1.87;;
41966;SDS011;27656;53.068;8.818;2023-04-25T13:04:02;13.97;;;2.37;;
41966;SDS011;27656;53.068;8.818;2023-04-25T13:06:28;6.80;;;1.50;;
41966;SDS011;27656;53.068;8.818;2023-04-25T13:08:56;2.60;;;1.00;;
41966;SDS011;27656;53.068;8.818;2023-04-25T13:11:23;4.60;;;1.20;;
41966;SDS011;27656;53.068;8.818;2023-04-25T13:16:16;4.07;;;1.47;;
41966;SDS011;27656;53.068;8.818;2023-04-25T13:18:43;4.73;;;1.53;;
41966;SDS011;27656;53.068;8.818;2023-04-25T13:21:09;4.10;;;1.50;;
41966;SDS011;27656;53.068;8.818;2023-04-25T13:23:37;10.10;;;1.93;;
41966;SDS011;27656;53.068;8.818;2023-04-25T13:26:04;5.57;;;1.27;;
41966;SDS011;27656;53.068;8.818;2023-04-25T13:28:31;7.57;;;1.40;;
41966;SDS011;27656;53.068;8.818;2023-04-25T13:30:57;6.10;;;1.57;;
41966;SDS011;27656;53.068;8.818;2023-04-25T13:33:25;11.17;;;2.30;;
41966;SDS011;27656;53.068;8.818;2023-04-25T13:35:52;10.90;;;1.70;;
41966;SDS011;27656;53.068;8.818;2023-04-25T13:38:23;9.77;;;1.80;;
41966;SDS011;27656;53.068;8.818;2023-04-25T13:40:51;10.77;;;1.50;;
41966;SDS011;27656;53.068;8.818;2023-04-25T13:43:19;3.83;;;1.20;;
41966;SDS011;27656;53.068;8.818;2023-04-25T13:45:50;6.93;;;1.77;;
41966;SDS011;27656;53.068;8.818;2023-04-25T13:48:18;9.13;;;1.70;;
41966;SDS011;27656;53.068;8.818;2023-04-25T13:50:44;6.53;;;1.37;;
41966;SDS011;27656;53.068;8.818;2023-04-25T13:53:11;4.07;;;0.93;;
41966;SDS011;27656;53.068;8.818;2023-04-25T13:55:38;3.80;;;1.30;;
41966;SDS011;27656;53.068;8.818;2023-04-25T13:58:05;4.90;;;1.13;;
41966;SDS011;27656;53.068;8.818;2023-04-25T14:00:35;6.00;;;1.13;;
41966;SDS011;27656;53.068;8.818;2023-04-25T14:03:04;3.57;;;1.07;;
41966;SDS011;27656;53.068;8.818;2023-04-25T14:05:34;3.20;;;0.90;;
41966;SDS011;27656;53.068;8.818;2023-04-25T14:08:08;7.00;;;1.50;;
41966;SDS011;27656;53.068;8.818;2023-04-25T14:10:35;9.83;;;1.40;;
41966;SDS011;27656;53.068;8.818;2023-04-25T14:13:02;4.37;;;1.33;;
41966;SDS011;27656;53.068;8.818;2023-04-25T14:27:44;7.80;;;1.57;;
41966;SDS011;27656;53.068;8.818;2023-04-25T14:30:16;8.80;;;1.70;;
41966;SDS011;27656;53.068;8.818;2023-04-25T14:32:43;8.37;;;1.73;;
41966;SDS011;27656;53.068;8.818;2023-04-25T14:35:11;7.17;;;2.13;;
41966;SDS011;27656;53.068;8.818;2023-04-25T14:40:04;5.87;;;2.30;;
41966;SDS011;27656;53.068;8.818;2023-04-25T14:42:31;6.57;;;1.57;;
41966;SDS011;27656;53.068;8.818;2023-04-25T14:44:59;5.87;;;1.67;;
41966;SDS011;27656;53.068;8.818;2023-04-25T14:47:25;10.30;;;2.90;;
41966;SDS011;27656;53.068;8.818;2023-04-25T14:49:52;5.93;;;1.63;;
41966;SDS011;27656;53.068;8.818;2023-04-25T14:52:20;11.23;;;2.07;;
41966;SDS011;27656;53.068;8.818;2023-04-25T14:54:47;8.03;;;2.10;;
41966;SDS011;27656;53.068;8.818;2023-04-25T14:57:13;7.07;;;2.00;;
41966;SDS011;27656;53.068;8.818;2023-04-25T14:59:40;23.13;;;5.00;;
41966;SDS011;27656;53.068;8.818;2023-04-25T15:02:07;10.40;;;2.60;;
41966;SDS011;27656;53.068;8.818;2023-04-25T15:04:33;11.33;;;2.60;;
41966;SDS011;27656;53.068;8.818;2023-04-25T15:07:00;9.57;;;2.23;;
41966;SDS011;27656;53.068;8.818;2023-04-25T15:09:27;9.63;;;2.07;;
41966;SDS011;27656;53.068;8.818;2023-04-25T15:11:54;8.47;;;1.97;;
41966;SDS011;27656;53.068;8.818;2023-04-25T15:14:21;8.60;;;1.63;;
41966;SDS011;27656;53.068;8.818;2023-04-25T15:16:47;9.30;;;2.00;;
41966;SDS011;27656;53.068;8.818;2023-04-25T15:19:14;12.07;;;1.43;;
41966;SDS011;27656;53.068;8.818;2023-04-25T15:21:41;7.80;;;1.57;;
41966;SDS011;27656;53.068;8.818;2023-04-25T15:24:07;5.47;;;1.70;;
41966;SDS011;27656;53.068;8.818;2023-04-25T15:26:34;5.80;;;1.60;;
41966;SDS011;27656;53.068;8.818;2023-04-25T15:29:00;5.30;;;1.60;;
41966;SDS011;27656;53.068;8.818;2023-04-25T15:31:27;6.17;;;1.87;;
41966;SDS011;27656;53.068;8.818;2023-04-25T15:33:53;6.33;;;1.97;;
41966;SDS011;27656;53.068;8.818;2023-04-25T15:36:20;7.00;;;1.70;;
41966;SDS011;27656;53.068;8.818;2023-04-25T15:38:47;5.00;;;1.70;;
41966;SDS011;27656;53.068;8.818;2023-04-25T15:41:14;8.63;;;2.00;;
41966;SDS011;27656;53.068;8.818;2023-04-25T15:43:40;9.40;;;2.23;;
41966;SDS011;27656;53.068;8.818;2023-04-25T15:46:07;8.40;;;1.53;;
41966;SDS011;27656;53.068;8.818;2023-04-25T15:48:33;14.17;;;2.17;;
41966;SDS011;27656;53.068;8.818;2023-04-25T15:51:00;15.90;;;3.37;;
41966;SDS011;27656;53.068;8.818;2023-04-25T15:53:26;9.80;;;2.40;;
41966;SDS011;27656;53.068;8.818;2023-04-25T15:55:52;8.73;;;2.10;;
41966;SDS011;27656;53.068;8.818;2023-04-25T15:58:19;7.27;;;2.10;;
41966;SDS011;27656;53.068;8.818;2023-04-25T16:00:46;6.73;;;1.90;;
41966;SDS011;27656;53.068;8.818;2023-04-25T16:03:14;12.30;;;2.60;;
41966;SDS011;27656;53.068;8.818;2023-04-25T16:05:41;10.30;;;2.20;;
41966;SDS011;27656;53.068;8.818;2023-04-25T16:08:07;6.60;;;2.03;;
41966;SDS011;27656;53.068;8.818;2023-04-25T16:10:34;9.67;;;2.20;;
41966;SDS011;27656;53.068;8.818;2023-04-25T16:13:01;7.77;;;1.60;;
41966;SDS011;27656;53.068;8.818;2023-04-25T16:15:28;8.53;;;1.67;;
41966;SDS011;27656;53.068;8.818;2023-04-25T16:17:57;8.07;;;2.17;;
41966;SDS011;27656;53.068;8.818;2023-04-25T16:20:24;9.07;;;1.60;;
41966;SDS011;27656;53.068;8.818;2023-04-25T16:22:51;5.87;;;1.77;;
41966;SDS011;27656;53.068;8.818;2023-04-25T16:25:17;6.57;;;1.30;;
41966;SDS011;27656;53.068;8.818;2023-04-25T16:27:44;6.93;;;1.40;;
41966;SDS011;27656;53.068;8.818;2023-04-25T16:30:10;6.40;;;1.30;;
41966;SDS011;27656;53.068;8.818;2023-04-25T16:32:37;9.43;;;1.53;;
41966;SDS011;27656;53.068;8.818;2023-04-25T16:35:05;9.70;;;1.60;;
41966;SDS011;27656;53.068;8.818;2023-04-25T16:37:32;4.77;;;1.30;;
41966;SDS011;27656;53.068;8.818;2023-04-25T16:39:58;6.83;;;1.33;;
41966;SDS011;27656;53.068;8.818;2023-04-25T16:42:25;5.73;;;1.10;;
41966;SDS011;27656;53.068;8.818;2023-04-25T16:44:51;6.97;;;1.30;;
41966;SDS011;27656;53.068;8.818;2023-04-25T16:47:18;9.33;;;1.53;;
41966;SDS011;27656;53.068;8.818;2023-04-25T16:49:45;5.77;;;1.20;;
41966;SDS011;27656;53.068;8.818;2023-04-25T16:52:12;4.07;;;1.27;;
41966;SDS011;27656;53.068;8.818;2023-04-25T16:54:39;6.27;;;1.37;;
41966;SDS011;27656;53.068;8.818;2023-04-25T16:57:06;8.80;;;1.70;;
41966;SDS011;27656;53.068;8.818;2023-04-25T16:59:36;10.00;;;1.47;;
41966;SDS011;27656;53.068;8.818;2023-04-25T17:02:03;11.43;;;1.97;;
41966;SDS011;27656;53.068;8.818;2023-04-25T17:04:30;6.03;;;1.67;;
41966;SDS011;27656;53.068;8.818;2023-04-25T17:06:57;6.33;;;1.50;;
41966;SDS011;27656;53.068;8.818;2023-04-25T17:09:23;6.77;;;1.93;;
41966;SDS011;27656;53.068;8.818;2023-04-25T17:11:50;7.87;;;1.70;;
41966;SDS011;27656;53.068;8.818;2023-04-25T17:14:17;4.73;;;1.33;;
41966;SDS011;27656;53.068;8.818;2023-04-25T17:16:44;4.00;;;1.43;;
41966;SDS011;27656;53.068;8.818;2023-04-25T17:19:11;8.57;;;1.60;;
41966;SDS011;27656;53.068;8.818;2023-04-25T17:21:38;6.90;;;1.70;;
41966;SDS011;27656;53.068;8.818;2023-04-25T17:24:04;7.77;;;2.17;;
41966;SDS011;27656;53.068;8.818;2023-04-25T17:26:35;7.50;;;1.83;;
41966;SDS011;27656;53.068;8.818;2023-04-25T17:29:02;7.33;;;1.90;;
41966;SDS011;27656;53.068;8.818;2023-04-25T17:31:29;5.20;;;1.63;;
41966;SDS011;27656;53.068;8.818;2023-04-25T17:33:56;7.03;;;1.80;;
41966;SDS011;27656;53.068;8.818;2023-04-25T17:36:22;8.43;;;1.77;;
41966;SDS011;27656;53.068;8.818;2023-04-25T17:38:49;5.00;;;1.73;;
41966;SDS011;27656;53.068;8.818;2023-04-25T17:41:17;9.53;;;1.40;;
41966;SDS011;27656;53.068;8.818;2023-04-25T17:43:43;10.40;;;1.67;;
41966;SDS011;27656;53.068;8.818;2023-04-25T17:46:10;11.10;;;2.27;;
41966;SDS011;27656;53.068;8.818;2023-04-25T17:48:37;4.27;;;1.47;;
41966;SDS011;27656;53.068;8.818;2023-04-25T17:51:03;8.43;;;1.30;;
41966;SDS011;27656;53.068;8.818;2023-04-25T17:53:30;8.37;;;1.50;;
41966;SDS011;27656;53.068;8.818;2023-04-25T17:55:56;5.00;;;1.30;;
41966;SDS011;27656;53.068;8.818;2023-04-25T17:58:23;5.67;;;1.53;;
41966;SDS011;27656;53.068;8.818;2023-04-25T18:00:50;6.87;;;1.90;;
41966;SDS011;27656;53.068;8.818;2023-04-25T18:03:16;8.10;;;1.67;;
41966;SDS011;27656;53.068;8.818;2023-04-25T18:05:43;8.93;;;1.67;;
41966;SDS011;27656;53.068;8.818;2023-04-25T18:08:09;8.87;;;1.43;;